This is the latest recevied weather packets stored in our database for station/object KD9CCP. If no packets are shown the sender has not sent any weather packets the latest 10 day(s).
| Time | Temp. | Humidity | Pressure | Rain* | Wind** | Luminosity | Snow |
|---|---|---|---|---|---|---|---|
| 1777577931 | 2.78° C | 89% | 1017.7 hPa | 0 mm | - | 63 W/m² | - |
| 1777577627 | 2.78° C | 90% | 1017.8 hPa | 0 mm | - | 78 W/m² | - |
| 1777577325 | 2.78° C | 92% | 1017.7 hPa | 0 mm | - | 69 W/m² | - |
| 1777577020 | 2.22° C | 92% | 1017.7 hPa | 0 mm | - | 77 W/m² | - |
| 1777576718 | 2.22° C | 93% | 1017.8 hPa | 0 mm | - | 68 W/m² | - |
| 1777576416 | 1.67° C | 92% | 1017.6 hPa | 0 mm | - | 50 W/m² | - |
| 1777576113 | 2.22° C | 91% | 1017.9 hPa | 0 mm | - | 40 W/m² | - |
| 1777575808 | 2.78° C | 87% | 1017.8 hPa | 0 mm | - | 27 W/m² | - |
| 1777575506 | 2.78° C | 84% | 1017.7 hPa | 0 mm | - | 32 W/m² | - |
| 1777575201 | 2.78° C | 84% | 1017.9 hPa | 0 mm | - | 38 W/m² | - |
| 1777574898 | 3.89° C | 81% | 1017.8 hPa | 0 mm | - | 48 W/m² | - |
| 1777574595 | 3.89° C | 82% | 1017.8 hPa | 0 mm | - | 61 W/m² | - |
| 1777574291 | 3.89° C | 82% | 1017.5 hPa | 0 mm | - | 89 W/m² | - |
| 1777573986 | 3.89° C | 79% | 1017.6 hPa | 0 mm | - | 108 W/m² | - |
| 1777573681 | 3.89° C | 82% | 1017.6 hPa | 0 mm | - | 135 W/m² | - |
| 1777573378 | 3.33° C | 82% | 1017.6 hPa | 0 mm | - | 147 W/m² | - |
| 1777573073 | 2.78° C | 84% | 1017.6 hPa | 0 mm | - | 127 W/m² | - |
| 1777572771 | 2.78° C | 83% | 1017.6 hPa | 0 mm | - | 94 W/m² | - |
| 1777572471 | 2.78° C | 82% | 1017.6 hPa | 0 mm | - | 52 W/m² | - |
| 1777572167 | 3.33° C | 80% | 1017.7 hPa | 0 mm | - | 25 W/m² | - |
| 1777571863 | 4.44° C | 79% | 1017.7 hPa | 0 mm | - | 51 W/m² | - |
| 1777571558 | 3.89° C | 72% | 1017.3 hPa | 0 mm | - | 250 W/m² | - |
| 1777571255 | 3.33° C | 73% | 1017.4 hPa | 0 mm | - | 193 W/m² | - |
| 1777570952 | 2.78° C | 79% | 1017.3 hPa | 0 mm | - | 94 W/m² | - |
| 1777570647 | 2.78° C | 83% | 1017.4 hPa | 0 mm | - | 85 W/m² | - |
* Rain latest hour (hover to see other rain measurements)
** Current wind speed in m/s (hover to see current wind gust speed)